Time;durP1;ratioP1;P1;durP2;ratioP2;P2;SDS_P1;SDS_P2;PMS_P1;PMS_P2;Temp;Humidity;BMP_temperature;BMP_pressure;BME280_temperature;BME280_humidity;BME280_pressure;Samples;Min_cycle;Max_cycle;Signal;HPM_P1;HPM_P2
2023/08/18 00:00:11;;;;;;;7.57;4.97;;;;;;;26.63;52.98;101901.16;5067801;28;20020;-70
2023/08/18 00:02:39;;;;;;;9.52;6.15;;;;;;;26.91;52.57;101903.06;5071089;28;20403;-68
2023/08/18 00:05:04;;;;;;;7.80;5.50;;;;;;;26.73;52.97;101896.97;5068482;28;20397;-70
2023/08/18 00:07:30;;;;;;;8.70;5.70;;;;;;;27.19;51.46;101892.38;5068800;28;20052;-70
2023/08/18 00:09:55;;;;;;;7.78;5.82;;;;;;;26.36;53.51;101898.34;5068144;28;20036;-70
2023/08/18 00:12:21;;;;;;;8.68;6.22;;;;;;;26.85;51.85;101903.41;5068634;28;20024;-69
2023/08/18 00:14:46;;;;;;;8.30;5.97;;;;;;;25.76;55.05;101894.69;5087245;28;20020;-70
2023/08/18 00:17:11;;;;;;;8.32;4.53;;;;;;;27.41;50.67;101897.28;5087950;28;20056;-69
2023/08/18 00:19:37;;;;;;;9.02;5.35;;;;;;;26.16;53.72;101892.38;5075457;28;20586;-69
2023/08/18 00:22:03;;;;;;;8.43;5.63;;;;;;;27.14;50.99;101890.00;5088702;28;20036;-69
2023/08/18 00:24:28;;;;;;;9.73;5.28;;;;;;;26.61;52.17;101896.84;5089735;28;20036;-69
2023/08/18 00:26:53;;;;;;;10.93;5.43;;;;;;;26.39;52.33;101903.50;5087989;28;20266;-70
2023/08/18 00:29:19;;;;;;;9.77;5.45;;;;;;;26.67;51.86;101888.44;5076648;28;20032;-69
2023/08/18 00:31:45;;;;;;;7.80;5.30;;;;;;;26.74;51.83;101882.63;5088445;28;20038;-70
2023/08/18 00:34:11;;;;;;;8.75;5.50;;;;;;;26.76;51.47;101879.84;5088194;28;20013;-69
2023/08/18 00:36:36;;;;;;;7.45;4.90;;;;;;;27.16;50.53;101880.03;5084428;28;20032;-70
2023/08/18 00:39:02;;;;;;;8.43;4.97;;;;;;;26.74;51.08;101881.78;5068062;28;20028;-69
2023/08/18 00:41:28;;;;;;;8.82;5.78;;;;;;;26.59;51.84;101887.09;5075716;28;20030;-70
2023/08/18 00:43:53;;;;;;;7.32;5.57;;;;;;;26.97;50.46;101879.47;5087470;28;20408;-70
2023/08/18 00:46:20;;;;;;;8.90;4.93;;;;;;;27.13;50.38;101888.25;5087019;28;20060;-69
2023/08/18 00:48:45;;;;;;;7.95;5.30;;;;;;;27.26;50.03;101886.53;5088779;28;20051;-70
2023/08/18 00:51:11;;;;;;;9.57;5.15;;;;;;;27.03;50.29;101887.13;5088372;28;20055;-70
2023/08/18 00:53:40;;;;;;;7.50;4.95;;;;;;;26.73;50.55;101885.41;5087459;28;20032;-69
2023/08/18 00:56:06;;;;;;;8.20;5.28;;;;;;;27.19;50.00;101881.63;5087494;28;20032;-70
2023/08/18 00:58:33;;;;;;;9.30;5.55;;;;;;;26.91;50.84;101884.28;5087974;28;20044;-70
2023/08/18 01:00:59;;;;;;;7.93;5.35;;;;;;;26.70;51.72;101880.25;5070190;28;20108;-70
2023/08/18 01:03:25;;;;;;;11.77;5.45;;;;;;;26.91;50.31;101873.53;5068087;28;20123;-69
2023/08/18 01:05:51;;;;;;;6.35;4.40;;;;;;;26.75;51.29;101875.47;5071131;28;20074;-69
2023/08/18 01:08:16;;;;;;;6.82;5.10;;;;;;;25.96;52.81;101866.72;5070952;28;20024;-69
2023/08/18 01:10:52;;;;;;;6.63;5.00;;;;;;;26.18;51.49;101858.31;5088607;28;20027;-69
2023/08/18 01:13:42;;;;;;;8.23;4.63;;;;;;;26.81;50.54;101863.50;5083519;28;20031;-70
2023/08/18 01:16:14;;;;;;;5.55;4.05;;;;;;;26.63;50.46;101869.00;5091691;28;20119;-69
2023/08/18 01:18:41;;;;;;;7.43;4.30;;;;;;;26.27;51.25;101869.41;5089890;28;20024;-69
2023/08/18 01:21:10;;;;;;;7.68;5.30;;;;;;;26.33;51.17;101867.22;5092243;28;20057;-70
2023/08/18 01:23:40;;;;;;;6.38;4.80;;;;;;;26.30;51.54;101869.25;5090662;28;20544;-70
2023/08/18 01:26:05;;;;;;;6.60;4.63;;;;;;;26.19;51.66;101869.91;5091490;28;20056;-70
2023/08/18 01:28:32;;;;;;;6.90;5.00;;;;;;;26.85;49.78;101873.91;5089838;28;20032;-70
2023/08/18 01:31:03;;;;;;;7.57;4.50;;;;;;;26.43;51.09;101875.56;5084844;28;20051;-69
2023/08/18 01:33:40;;;;;;;11.55;4.78;;;;;;;26.53;50.68;101874.06;5070198;28;20078;-70
2023/08/18 01:36:11;;;;;;;6.20;4.32;;;;;;;26.48;50.85;101868.13;5071336;28;20032;-68
2023/08/18 01:38:38;;;;;;;7.30;4.95;;;;;;;26.26;51.07;101865.03;5071410;28;20488;-69
2023/08/18 01:41:05;;;;;;;9.90;5.25;;;;;;;26.28;50.71;101868.47;5077464;28;20052;-70
2023/08/18 01:43:32;;;;;;;5.65;4.43;;;;;;;26.04;52.48;101859.13;5091841;28;20402;-70
2023/08/18 01:46:00;;;;;;;6.68;4.47;;;;;;;24.61;55.43;101867.97;5089254;28;20031;-70
2023/08/18 01:48:26;;;;;;;5.90;4.32;;;;;;;25.72;53.21;101855.66;5092387;28;20031;-70
2023/08/18 01:50:51;;;;;;;6.82;4.32;;;;;;;25.73;52.61;101852.00;5090516;28;20085;-69
2023/08/18 01:53:17;;;;;;;7.57;4.65;;;;;;;25.63;53.36;101851.69;5087718;28;20036;-69
2023/08/18 01:55:43;;;;;;;26.95;5.35;;;;;;;25.62;53.83;101849.09;5087242;28;20032;-68
2023/08/18 01:58:08;;;;;;;8.60;4.57;;;;;;;25.57;53.78;101838.66;5084368;28;20051;-69
2023/08/18 02:00:36;;;;;;;5.88;4.40;;;;;;;25.92;52.70;101835.72;5052306;28;20058;-70
2023/08/18 02:03:02;;;;;;;7.57;4.60;;;;;;;26.94;50.13;101831.38;5051348;28;20021;-69
2023/08/18 02:05:28;;;;;;;6.45;4.53;;;;;;;26.38;51.05;101837.50;5071676;28;20079;-70
2023/08/18 02:07:54;;;;;;;6.47;5.25;;;;;;;26.49;51.12;101835.00;5069299;28;20262;-69
2023/08/18 02:10:20;;;;;;;7.50;5.47;;;;;;;25.95;52.02;101832.00;5053714;28;20550;-70
2023/08/18 02:12:45;;;;;;;7.38;4.82;;;;;;;26.07;52.00;101828.63;5071106;28;20036;-70
2023/08/18 02:15:11;;;;;;;6.95;4.82;;;;;;;26.61;50.42;101821.78;5051863;28;20085;-69
2023/08/18 02:17:36;;;;;;;6.63;4.47;;;;;;;27.00;49.46;101822.97;5052151;28;20025;-70
2023/08/18 02:20:03;;;;;;;7.35;4.78;;;;;;;25.54;53.07;101820.09;5051971;28;20035;-70
2023/08/18 02:22:29;;;;;;;7.28;4.82;;;;;;;24.89;54.94;101824.59;5070441;28;20514;-70
2023/08/18 02:24:55;;;;;;;7.25;5.20;;;;;;;26.06;52.69;101808.16;5070472;28;20353;-70
2023/08/18 02:27:20;;;;;;;8.98;5.05;;;;;;;25.40;53.87;101807.50;5048534;28;20472;-70
2023/08/18 02:29:46;;;;;;;7.80;5.05;;;;;;;25.62;53.41;101800.91;5052873;28;20472;-70
2023/08/18 02:32:11;;;;;;;7.97;4.88;;;;;;;26.41;51.29;101805.16;5053305;28;20024;-69
2023/08/18 02:34:37;;;;;;;8.27;5.38;;;;;;;26.14;50.85;101802.34;5070190;28;20028;-69
2023/08/18 02:37:02;;;;;;;6.82;5.18;;;;;;;25.91;52.01;101813.44;5051588;28;20033;-69
2023/08/18 02:39:28;;;;;;;7.75;5.07;;;;;;;25.91;52.53;101807.22;5044028;28;20048;-69
2023/08/18 02:41:54;;;;;;;9.52;5.82;;;;;;;25.79;52.56;101803.47;5033737;28;20503;-70
2023/08/18 02:44:20;;;;;;;7.45;5.05;;;;;;;25.45;53.87;101801.91;5051354;28;20025;-70
2023/08/18 02:46:47;;;;;;;9.05;5.07;;;;;;;25.85;52.37;101797.72;5032815;28;20032;-69
2023/08/18 02:49:13;;;;;;;8.57;5.28;;;;;;;25.70;53.61;101804.00;5060829;28;20033;-69
2023/08/18 02:51:38;;;;;;;9.13;6.25;;;;;;;26.38;51.45;101810.69;5036843;28;20024;-69
2023/08/18 02:54:04;;;;;;;7.75;5.28;;;;;;;26.23;51.52;101802.63;5066266;28;20031;-69
2023/08/18 02:56:31;;;;;;;9.38;5.63;;;;;;;26.33;51.20;101812.78;5052417;28;20401;-69
2023/08/18 02:58:57;;;;;;;9.15;5.03;;;;;;;26.44;51.15;101810.31;5075697;28;20459;-69
2023/08/18 03:01:23;;;;;;;9.57;6.07;;;;;;;25.82;52.94;101808.63;5086743;28;20535;-69
2023/08/18 03:03:48;;;;;;;11.70;6.22;;;;;;;25.35;54.58;101809.59;5089747;28;20056;-70
2023/08/18 03:06:14;;;;;;;8.93;5.95;;;;;;;25.64;53.83;101804.38;5089178;28;20024;-70
2023/08/18 03:08:39;;;;;;;9.60;5.85;;;;;;;25.56;53.82;101807.50;5089123;28;20078;-69
2023/08/18 03:11:05;;;;;;;9.30;5.55;;;;;;;26.41;51.89;101807.81;5087773;28;20038;-69
2023/08/18 03:13:31;;;;;;;8.65;5.80;;;;;;;26.27;52.39;101807.78;5090111;28;20024;-69
2023/08/18 03:15:57;;;;;;;8.18;5.45;;;;;;;26.14;52.32;101813.06;5088209;28;20020;-69
2023/08/18 03:18:23;;;;;;;11.15;6.00;;;;;;;26.48;51.05;101801.13;5090245;28;20050;-69
2023/08/18 03:20:49;;;;;;;8.70;5.78;;;;;;;26.04;51.93;101804.72;5087544;28;20028;-70
2023/08/18 03:23:15;;;;;;;9.77;5.72;;;;;;;25.54;53.77;101799.56;5088525;28;20020;-69
2023/08/18 03:25:42;;;;;;;10.10;6.20;;;;;;;24.68;56.61;101804.34;5090851;28;20032;-69
2023/08/18 03:28:08;;;;;;;9.13;6.15;;;;;;;24.70;57.75;101805.13;5088189;28;20039;-69
2023/08/18 03:30:40;;;;;;;10.65;5.80;;;;;;;25.16;55.76;101799.91;5090049;28;20473;-69
2023/08/18 03:33:06;;;;;;;11.40;6.17;;;;;;;24.55;56.96;101793.41;5090123;28;20036;-70
2023/08/18 03:35:35;;;;;;;9.55;5.85;;;;;;;24.53;58.34;101796.19;5089008;28;20262;-70
2023/08/18 03:38:03;;;;;;;9.40;5.97;;;;;;;24.36;58.37;101788.22;5087578;28;20024;-69
2023/08/18 03:40:29;;;;;;;9.02;5.68;;;;;;;24.47;58.63;101790.28;5081142;28;20492;-69
2023/08/18 03:42:54;;;;;;;9.98;6.30;;;;;;;25.28;55.64;101782.31;5069386;28;20398;-68
2023/08/18 03:45:19;;;;;;;8.55;5.50;;;;;;;25.53;55.57;101781.75;5068827;28;20331;-69
2023/08/18 03:47:45;;;;;;;9.82;5.65;;;;;;;24.53;58.48;101789.97;5081541;28;20081;-68
2023/08/18 03:50:11;;;;;;;8.35;5.57;;;;;;;25.16;57.26;101793.72;5068292;28;20119;-68
2023/08/18 03:52:37;;;;;;;8.60;5.07;;;;;;;24.32;59.49;101805.38;5067577;28;20499;-68
2023/08/18 03:55:03;;;;;;;7.43;5.38;;;;;;;25.02;57.82;101799.84;5068622;28;20115;-68
2023/08/18 03:57:28;;;;;;;8.15;5.45;;;;;;;24.54;58.35;101797.91;5067331;28;20550;-68
2023/08/18 03:59:55;;;;;;;8.88;5.63;;;;;;;24.78;58.20;101800.22;5030821;28;20060;-68
2023/08/18 04:02:24;;;;;;;9.35;5.57;;;;;;;24.29;59.83;101792.16;5034323;28;20494;-68
2023/08/18 04:04:49;;;;;;;10.45;5.85;;;;;;;24.93;57.51;101787.81;5049510;28;20025;-69
2023/08/18 04:07:15;;;;;;;11.32;6.10;;;;;;;25.57;55.58;101788.66;5031558;28;20496;-68
2023/08/18 04:09:40;;;;;;;8.95;6.07;;;;;;;24.67;57.89;101791.94;5031298;28;20058;-68
2023/08/18 04:12:06;;;;;;;9.10;5.32;;;;;;;24.69;58.80;101785.56;5049914;28;20530;-69
2023/08/18 04:14:32;;;;;;;8.48;5.65;;;;;;;25.54;54.72;101786.19;5031130;28;20017;-68
2023/08/18 04:16:57;;;;;;;12.95;6.55;;;;;;;24.80;59.18;101793.00;5041269;28;20444;-68
2023/08/18 04:19:23;;;;;;;9.95;5.35;;;;;;;24.67;57.79;101789.25;5036900;28;20028;-68
2023/08/18 04:21:48;;;;;;;7.85;5.50;;;;;;;24.35;59.76;101791.84;5050407;28;20384;-69
2023/08/18 04:24:13;;;;;;;9.93;5.00;;;;;;;24.44;59.72;101799.38;5051714;28;20024;-69
2023/08/18 04:26:40;;;;;;;7.85;5.10;;;;;;;24.29;60.15;101800.16;5049137;28;20111;-69
2023/08/18 04:29:05;;;;;;;8.63;5.00;;;;;;;24.86;58.33;101803.34;5050449;28;20028;-70
2023/08/18 04:31:31;;;;;;;8.52;4.93;;;;;;;24.63;58.13;101811.75;5069163;28;20035;-69
2023/08/18 04:33:57;;;;;;;8.85;5.15;;;;;;;24.58;57.92;101803.97;5068512;28;20024;-70
2023/08/18 04:36:22;;;;;;;10.32;5.45;;;;;;;25.06;57.93;101804.06;5055819;28;20050;-70
2023/08/18 04:38:48;;;;;;;8.48;5.38;;;;;;;24.80;57.33;101808.16;5051933;28;20028;-70
2023/08/18 04:41:13;;;;;;;9.02;5.15;;;;;;;24.88;58.08;101809.47;5072776;28;20107;-70
2023/08/18 04:43:39;;;;;;;8.38;5.80;;;;;;;25.15;56.69;101806.19;5072157;28;20847;-70
2023/08/18 04:46:04;;;;;;;10.57;6.15;;;;;;;24.77;58.14;101802.97;5053473;28;20023;-70
2023/08/18 04:48:30;;;;;;;7.35;4.55;;;;;;;24.67;58.80;101813.31;5054266;28;20071;-69
2023/08/18 04:50:55;;;;;;;6.38;4.85;;;;;;;24.87;58.26;101810.41;5055126;28;20107;-70
2023/08/18 04:53:21;;;;;;;8.10;5.00;;;;;;;25.30;56.48;101803.63;5072471;28;20078;-70
2023/08/18 04:55:46;;;;;;;7.25;5.13;;;;;;;24.79;58.30;101796.59;5072265;28;20021;-68
2023/08/18 04:58:15;;;;;;;8.30;4.80;;;;;;;25.10;57.34;101800.25;5064951;28;20444;-69
2023/08/18 05:00:44;;;;;;;9.85;4.75;;;;;;;24.97;57.36;101799.22;5091860;28;20476;-69
2023/08/18 05:03:11;;;;;;;9.23;4.72;;;;;;;25.10;57.00;101802.06;5090618;28;20040;-69
2023/08/18 05:06:02;;;;;;;7.85;4.95;;;;;;;25.66;55.01;101807.81;5091273;28;20039;-68
2023/08/18 05:08:29;;;;;;;6.93;4.57;;;;;;;25.74;55.01;101810.91;5078986;28;20036;-70
2023/08/18 05:11:06;;;;;;;7.32;4.63;;;;;;;25.76;54.42;101805.44;5070911;28;20589;-68
2023/08/18 05:13:32;;;;;;;8.32;4.65;;;;;;;25.74;54.35;101806.41;5087840;28;20032;-69
2023/08/18 05:16:03;;;;;;;8.73;4.53;;;;;;;25.47;55.47;101795.53;5089081;28;20135;-69
2023/08/18 05:18:29;;;;;;;10.45;4.20;;;;;;;25.79;54.71;101790.09;5077115;28;20073;-70
2023/08/18 05:20:56;;;;;;;6.90;4.47;;;;;;;25.73;54.54;101795.78;5091031;28;20454;-69
2023/08/18 05:23:22;;;;;;;5.40;4.20;;;;;;;26.04;53.67;101791.31;5090832;28;20024;-69
2023/08/18 05:25:48;;;;;;;6.63;4.18;;;;;;;25.78;54.16;101795.53;5090156;28;20026;-68
2023/08/18 05:28:14;;;;;;;8.88;4.75;;;;;;;25.74;54.63;101797.50;5087614;28;20028;-70
2023/08/18 05:30:50;;;;;;;8.63;4.40;;;;;;;25.50;54.68;101779.28;5070175;28;20554;-69
2023/08/18 05:33:16;;;;;;;6.53;4.07;;;;;;;25.65;54.46;101779.31;5074345;28;20036;-69
2023/08/18 05:35:42;;;;;;;8.15;4.47;;;;;;;25.05;56.29;101783.59;5088325;28;20047;-69
2023/08/18 05:38:11;;;;;;;8.15;4.50;;;;;;;24.93;56.54;101782.47;5073932;28;20058;-70
2023/08/18 05:40:41;;;;;;;9.95;5.15;;;;;;;25.06;56.84;101782.66;5087359;28;20094;-69
2023/08/18 05:43:07;;;;;;;6.70;4.53;;;;;;;26.14;53.42;101776.41;5083290;28;20048;-70
2023/08/18 05:45:38;;;;;;;6.90;4.15;;;;;;;25.63;54.95;101782.09;5077478;28;20024;-69
2023/08/18 05:48:04;;;;;;;8.18;3.80;;;;;;;25.24;55.82;101776.25;5077011;28;20024;-70
2023/08/18 05:50:31;;;;;;;6.47;4.38;;;;;;;25.83;54.28;101778.25;5069611;28;20056;-70
2023/08/18 05:52:57;;;;;;;8.95;4.43;;;;;;;25.52;54.69;101787.22;5069726;28;20028;-70
2023/08/18 05:55:24;;;;;;;8.18;4.10;;;;;;;25.77;54.46;101783.94;5084276;28;20019;-70
2023/08/18 05:57:50;;;;;;;6.82;4.43;;;;;;;25.76;54.90;101787.59;5084998;28;20443;-70
2023/08/18 06:00:16;;;;;;;6.35;4.18;;;;;;;25.24;55.89;101781.59;5071851;28;20028;-70
2023/08/18 06:02:42;;;;;;;7.10;4.53;;;;;;;25.42;55.94;101773.50;5074453;28;20043;-70
2023/08/18 06:05:10;;;;;;;7.97;4.40;;;;;;;26.31;52.75;101779.84;5088932;28;20024;-70
2023/08/18 06:07:36;;;;;;;6.93;3.83;;;;;;;26.56;52.38;101781.88;5079257;28;20111;-71
2023/08/18 06:10:06;;;;;;;9.32;5.00;;;;;;;26.05;52.74;101771.63;5078363;28;20377;-70
2023/08/18 06:12:31;;;;;;;8.35;5.50;;;;;;;25.93;53.76;101773.19;5087135;28;20046;-70
2023/08/18 06:14:56;;;;;;;8.85;4.85;;;;;;;25.98;53.23;101770.22;5072748;28;20025;-70
2023/08/18 06:17:22;;;;;;;9.02;5.10;;;;;;;26.10;53.40;101774.00;5082747;28;20028;-70
2023/08/18 06:19:48;;;;;;;8.55;5.38;;;;;;;26.33;53.18;101786.00;5089245;28;20020;-70
2023/08/18 06:22:13;;;;;;;6.75;4.57;;;;;;;26.80;51.31;101774.13;5091710;28;20098;-70
2023/08/18 06:24:39;;;;;;;8.27;4.80;;;;;;;26.23;52.51;101773.16;5090100;28;20058;-70
2023/08/18 06:27:05;;;;;;;10.45;5.90;;;;;;;26.07;52.76;101769.69;5075356;28;20480;-70
2023/08/18 06:29:30;;;;;;;8.30;4.97;;;;;;;26.06;52.93;101767.97;5071360;28;20031;-71
2023/08/18 06:31:56;;;;;;;9.35;5.35;;;;;;;25.51;53.93;101770.31;5081691;28;20023;-71
2023/08/18 06:34:21;;;;;;;7.93;4.68;;;;;;;26.02;53.40;101761.06;5072841;28;20016;-70
2023/08/18 06:36:47;;;;;;;9.13;5.10;;;;;;;25.34;54.40;101765.91;5079891;28;20028;-70
2023/08/18 06:39:12;;;;;;;8.18;4.72;;;;;;;26.41;52.45;101773.84;5085541;28;20388;-70
2023/08/18 06:41:39;;;;;;;8.38;5.03;;;;;;;26.89;51.31;101773.53;5075421;28;20024;-70
2023/08/18 06:44:05;;;;;;;7.55;4.55;;;;;;;27.26;49.41;101776.50;5090003;28;20024;-70
2023/08/18 06:46:30;;;;;;;7.70;4.68;;;;;;;27.67;49.26;101776.53;5089312;28;20556;-70
2023/08/18 06:48:56;;;;;;;7.68;4.22;;;;;;;28.18;47.44;101781.13;5088790;28;20479;-70
2023/08/18 06:51:21;;;;;;;8.90;5.15;;;;;;;28.12;47.63;101785.09;5089090;28;20048;-70
2023/08/18 06:53:47;;;;;;;9.02;4.97;;;;;;;27.84;47.57;101787.00;5088984;28;20016;-70
2023/08/18 06:56:12;;;;;;;7.03;4.88;;;;;;;28.21;46.80;101781.78;5086462;28;20119;-70
2023/08/18 06:58:38;;;;;;;9.20;5.40;;;;;;;27.38;48.61;101790.09;5068325;28;20040;-70
2023/08/18 07:01:03;;;;;;;8.00;5.60;;;;;;;27.70;48.57;101795.16;5089465;28;20024;-70
2023/08/18 07:03:29;;;;;;;7.30;4.70;;;;;;;27.80;47.98;101780.09;5084560;28;20463;-70
2023/08/18 07:05:57;;;;;;;8.95;5.40;;;;;;;27.58;48.34;101784.25;5082617;28;20415;-69
2023/08/18 07:08:22;;;;;;;10.15;5.45;;;;;;;26.61;49.81;101789.63;5079738;28;20028;-69
2023/08/18 07:10:48;;;;;;;8.68;5.20;;;;;;;27.64;48.65;101782.13;5074605;28;20042;-70
2023/08/18 07:13:13;;;;;;;9.48;5.53;;;;;;;27.67;48.08;101782.78;5077324;28;20023;-70
2023/08/18 07:15:39;;;;;;;8.70;5.13;;;;;;;27.64;48.27;101779.44;5075364;28;20028;-70
2023/08/18 07:18:05;;;;;;;9.70;5.53;;;;;;;28.14;47.48;101782.31;5078195;28;20027;-69
2023/08/18 07:20:31;;;;;;;10.65;5.80;;;;;;;28.80;45.68;101783.03;5080440;28;20047;-70
2023/08/18 07:22:57;;;;;;;11.85;6.10;;;;;;;28.00;46.78;101780.59;5075940;28;20025;-70
2023/08/18 07:25:22;;;;;;;10.55;6.20;;;;;;;28.83;45.96;101774.75;5082883;28;20032;-70
2023/08/18 07:27:48;;;;;;;11.25;5.93;;;;;;;28.66;45.88;101773.28;5076892;28;20101;-70
2023/08/18 07:30:13;;;;;;;8.95;5.50;;;;;;;28.76;46.01;101762.72;5087014;28;20553;-70
2023/08/18 07:32:39;;;;;;;9.43;5.53;;;;;;;29.33;44.65;101750.44;5087556;28;20147;-69
2023/08/18 07:35:08;;;;;;;9.70;5.65;;;;;;;30.71;42.08;101743.34;5076860;28;20021;-72
2023/08/18 07:37:37;;;;;;;10.00;5.50;;;;;;;31.08;40.84;101750.28;5078331;28;20094;-70
2023/08/18 07:40:05;;;;;;;9.20;5.07;;;;;;;31.08;40.27;101752.97;5087072;28;20024;-70
2023/08/18 07:42:32;;;;;;;6.82;4.82;;;;;;;31.00;40.91;101747.34;5067823;28;20430;-70
2023/08/18 07:44:57;;;;;;;8.65;5.60;;;;;;;31.28;39.47;101754.88;5079850;28;20024;-69
2023/08/18 07:47:23;;;;;;;7.85;4.78;;;;;;;32.27;37.37;101754.56;5080150;28;20035;-70
2023/08/18 07:49:48;;;;;;;9.27;4.82;;;;;;;31.95;37.74;101754.66;5067139;28;20028;-70
2023/08/18 07:52:13;;;;;;;6.95;5.05;;;;;;;33.01;36.30;101757.06;5067442;28;20408;-69
2023/08/18 07:54:39;;;;;;;7.53;4.43;;;;;;;32.27;37.28;101759.09;5067904;28;20147;-70
2023/08/18 07:57:04;;;;;;;7.60;5.38;;;;;;;30.91;39.94;101755.22;5072772;28;20023;-70
2023/08/18 07:59:30;;;;;;;8.68;5.30;;;;;;;29.55;42.00;101756.91;5087120;28;20131;-69
2023/08/18 08:01:55;;;;;;;9.50;5.22;;;;;;;29.57;42.68;101758.50;5087435;28;20096;-70
2023/08/18 08:04:20;;;;;;;9.13;4.97;;;;;;;30.73;41.13;101740.50;5088250;28;20019;-70
2023/08/18 08:06:46;;;;;;;10.15;5.32;;;;;;;31.09;40.52;101739.34;5088667;28;20019;-70
2023/08/18 08:09:11;;;;;;;7.53;4.82;;;;;;;32.09;38.70;101737.22;5089900;28;20409;-70
2023/08/18 08:11:37;;;;;;;12.75;6.05;;;;;;;31.59;39.38;101743.34;5085062;28;20054;-70
2023/08/18 08:14:03;;;;;;;14.27;5.50;;;;;;;32.22;38.36;101750.53;5071371;28;20036;-70
2023/08/18 08:16:28;;;;;;;10.73;6.22;;;;;;;30.27;41.26;101756.69;5068415;28;20127;-70
2023/08/18 08:18:54;;;;;;;10.52;5.97;;;;;;;30.53;40.77;101759.19;5066844;28;20244;-70
2023/08/18 08:21:20;;;;;;;7.78;5.05;;;;;;;30.83;40.60;101746.00;5068270;28;20107;-70
2023/08/18 08:23:46;;;;;;;12.63;6.47;;;;;;;29.90;42.33;101753.38;5077943;28;20028;-70
2023/08/18 08:26:11;;;;;;;16.33;6.30;;;;;;;30.29;42.44;101757.44;5087859;28;20024;-70
2023/08/18 08:28:38;;;;;;;13.25;6.85;;;;;;;31.40;40.27;101754.81;5086054;28;20028;-70
2023/08/18 08:31:03;;;;;;;12.35;6.82;;;;;;;30.62;41.71;101758.44;5067989;28;20032;-70
2023/08/18 08:33:31;;;;;;;13.45;6.85;;;;;;;32.08;39.75;101751.72;5072196;28;20039;-70
2023/08/18 08:35:58;;;;;;;12.00;5.90;;;;;;;32.49;38.89;101752.63;5087846;28;20027;-70
2023/08/18 08:38:23;;;;;;;13.07;6.22;;;;;;;32.44;38.63;101744.09;5087307;28;20488;-70
2023/08/18 08:40:54;;;;;;;11.60;6.95;;;;;;;33.71;37.16;101749.66;5087053;28;20038;-71
2023/08/18 08:43:20;;;;;;;11.57;5.53;;;;;;;34.64;34.83;101763.34;5087038;28;20026;-70
2023/08/18 08:45:45;;;;;;;10.90;6.75;;;;;;;33.82;35.50;101763.06;5087799;28;20032;-70
2023/08/18 08:48:11;;;;;;;15.68;7.78;;;;;;;32.36;37.53;101762.88;5087981;28;20039;-70
2023/08/18 08:50:44;;;;;;;11.95;6.75;;;;;;;31.67;38.87;101766.97;5087899;28;20390;-70
2023/08/18 08:53:13;;;;;;;10.82;6.32;;;;;;;31.57;39.89;101769.56;5087173;28;20036;-70
2023/08/18 08:55:41;;;;;;;13.63;6.90;;;;;;;30.57;41.40;101779.53;5088093;28;20027;-70
2023/08/18 08:58:08;;;;;;;13.25;7.47;;;;;;;30.68;41.56;101780.50;5079574;28;20495;-70
2023/08/18 09:00:35;;;;;;;14.18;8.45;;;;;;;29.44;43.94;101768.47;5079518;28;20036;-70
2023/08/18 09:03:04;;;;;;;13.60;7.32;;;;;;;29.42;44.07;101765.06;5087782;28;20056;-70
2023/08/18 09:05:31;;;;;;;15.68;7.57;;;;;;;30.83;42.30;101763.06;5089308;28;20433;-70
2023/08/18 09:07:56;;;;;;;15.73;7.85;;;;;;;30.70;42.65;101773.16;5088210;28;20028;-70
2023/08/18 09:10:22;;;;;;;14.50;7.32;;;;;;;30.81;42.00;101770.41;5088074;28;20505;-70
2023/08/18 09:12:48;;;;;;;17.33;8.18;;;;;;;30.87;41.81;101764.53;5077462;28;20036;-70
2023/08/18 09:15:13;;;;;;;13.90;6.90;;;;;;;31.21;40.84;101769.84;5088309;28;20050;-70
2023/08/18 09:17:43;;;;;;;15.15;7.65;;;;;;;31.91;40.52;101766.72;5087535;28;20070;-70
2023/08/18 09:20:10;;;;;;;14.50;7.82;;;;;;;32.45;39.98;101778.25;5076440;28;20048;-70
2023/08/18 09:22:35;;;;;;;14.52;7.88;;;;;;;32.00;40.31;101778.56;5083612;28;20050;-70
2023/08/18 09:25:01;;;;;;;16.13;7.28;;;;;;;31.59;40.75;101776.59;5070369;28;20468;-70
2023/08/18 09:27:27;;;;;;;15.40;8.05;;;;;;;30.86;41.44;101784.41;5073965;28;20030;-70
2023/08/18 09:29:57;;;;;;;15.73;8.05;;;;;;;31.50;40.82;101766.53;5090063;28;20040;-70
2023/08/18 09:32:22;;;;;;;15.45;8.25;;;;;;;30.78;42.17;101778.78;5091969;28;20024;-70
2023/08/18 09:34:49;;;;;;;16.85;8.27;;;;;;;31.21;41.21;101771.72;5090968;28;20070;-71
2023/08/18 09:37:16;;;;;;;16.50;7.95;;;;;;;30.77;42.29;101764.41;5088354;28;20032;-71
2023/08/18 09:39:41;;;;;;;14.10;7.70;;;;;;;31.17;42.70;101760.28;5076808;28;20040;-70
2023/08/18 09:42:08;;;;;;;22.63;8.50;;;;;;;32.40;39.73;101754.31;5071127;28;20021;-70
2023/08/18 09:44:34;;;;;;;20.70;8.45;;;;;;;32.19;39.72;101756.22;5071618;28;20032;-71
2023/08/18 09:47:04;;;;;;;17.85;8.75;;;;;;;31.52;40.92;101742.97;5082404;28;20536;-71
2023/08/18 09:49:33;;;;;;;14.48;8.20;;;;;;;30.68;42.24;101749.00;5088947;28;20059;-70
2023/08/18 09:52:04;;;;;;;13.05;7.13;;;;;;;31.82;40.13;101741.34;5089549;28;20032;-70
2023/08/18 09:54:37;;;;;;;15.85;7.55;;;;;;;32.30;39.92;101746.19;5092388;28;20031;-70
2023/08/18 09:57:07;;;;;;;16.83;8.23;;;;;;;32.70;39.82;101744.50;5090558;28;20031;-70
2023/08/18 09:59:41;;;;;;;13.82;7.47;;;;;;;33.46;38.49;101741.13;5089610;28;20446;-70
2023/08/18 10:02:07;;;;;;;17.02;8.43;;;;;;;33.09;38.41;101749.09;5076355;28;20427;-70
2023/08/18 10:04:39;;;;;;;15.95;8.95;;;;;;;31.95;39.83;101744.69;5069780;28;20086;-71
2023/08/18 10:07:05;;;;;;;12.85;7.65;;;;;;;32.27;40.22;101743.75;5084008;28;20042;-70
2023/08/18 10:09:33;;;;;;;13.93;7.97;;;;;;;31.66;41.05;101738.28;5090640;28;20027;-70
2023/08/18 10:12:03;;;;;;;17.17;8.07;;;;;;;31.13;42.46;101731.84;5090770;28;20032;-70
2023/08/18 10:14:31;;;;;;;15.30;8.05;;;;;;;31.65;42.67;101729.28;5091847;28;20023;-70
2023/08/18 10:16:59;;;;;;;17.02;7.95;;;;;;;31.12;42.66;101731.00;5089965;28;20499;-69
2023/08/18 10:19:54;;;;;;;16.73;7.40;;;;;;;31.13;42.53;101726.44;5079148;28;20020;-70
2023/08/18 10:22:24;;;;;;;18.08;8.07;;;;;;;31.48;42.23;101714.50;5083324;28;20024;-70
2023/08/18 10:24:52;;;;;;;16.67;7.78;;;;;;;32.97;40.70;101714.06;5089858;28;20077;-71
2023/08/18 10:27:26;;;;;;;18.30;8.70;;;;;;;31.78;42.49;101721.84;5090818;28;20057;-70
2023/08/18 10:29:57;;;;;;;21.40;8.07;;;;;;;32.70;40.77;101720.13;5076806;28;20499;-70
2023/08/18 10:32:23;;;;;;;17.17;7.40;;;;;;;33.62;39.16;101716.16;5069217;28;20030;-70
2023/08/18 10:34:50;;;;;;;20.38;8.55;;;;;;;33.27;39.71;101708.66;5069451;28;20020;-70
2023/08/18 10:37:19;;;;;;;15.73;8.23;;;;;;;33.21;39.76;101688.38;5084170;28;20051;-70
2023/08/18 10:39:45;;;;;;;17.55;7.85;;;;;;;33.36;39.72;101698.78;5076120;28;20094;-70
2023/08/18 10:42:14;;;;;;;15.32;7.97;;;;;;;33.76;39.05;101692.31;5069854;28;20036;-70
2023/08/18 10:45:03;;;;;;;16.83;7.65;;;;;;;32.90;40.02;101684.97;5069254;28;20034;-70
2023/08/18 10:47:37;;;;;;;16.80;7.93;;;;;;;32.60;41.02;101690.31;5078477;28;20484;-70
2023/08/18 10:50:07;;;;;;;16.45;8.32;;;;;;;33.12;40.53;101694.66;5090479;28;20036;-70
2023/08/18 10:52:32;;;;;;;15.70;8.55;;;;;;;33.22;40.38;101700.94;5089649;28;20020;-70
2023/08/18 10:54:59;;;;;;;12.00;6.93;;;;;;;34.08;39.20;101702.78;5088279;28;20387;-70
2023/08/18 10:57:24;;;;;;;12.40;7.15;;;;;;;34.11;38.54;101699.75;5080248;28;20403;-69
2023/08/18 10:59:50;;;;;;;16.90;7.57;;;;;;;33.37;39.29;101697.81;5080343;28;20422;-69
2023/08/18 11:02:16;;;;;;;15.02;7.00;;;;;;;33.84;38.86;101700.59;5086935;28;20748;-68
2023/08/18 11:04:42;;;;;;;12.75;7.10;;;;;;;33.79;38.83;101692.03;5088920;28;20028;-69
2023/08/18 11:07:07;;;;;;;15.40;7.43;;;;;;;33.54;39.43;101688.94;5088375;28;20020;-68
2023/08/18 11:09:36;;;;;;;14.15;8.05;;;;;;;32.47;41.14;101678.91;5078284;28;20408;-69
2023/08/18 11:12:02;;;;;;;17.55;7.53;;;;;;;32.71;40.95;101685.78;5069074;28;20046;-68
2023/08/18 11:14:27;;;;;;;12.95;7.40;;;;;;;33.27;40.35;101679.69;5068450;28;20029;-69
2023/08/18 11:16:52;;;;;;;14.52;7.97;;;;;;;33.10;40.16;101683.13;5069846;28;20024;-69
2023/08/18 11:19:18;;;;;;;14.45;8.50;;;;;;;33.56;40.02;101672.53;5076181;28;20027;-69